Terminal Aerodrome Forecast
Issued by NWS Topeka, KS

Home | Current Version | Previous Version | Text Only | Print | Product List | Glossary On
Versions: 1 2 3 4 5 6 7 8 9 10 11 12 13 14 15 16 17 18 19 20 21 22 23
000
FTUS43 KTOP 012329
TAFTOP
TAF
KTOP 012329Z 0200/0224 04008KT P6SM SCT050
     FM020400 04006KT P6SM BKN025
     FM020700 02006KT 4SM BR BKN010
     FM021700 03009KT P6SM VCTS FEW008 BKN020CB=

USA.gov is the U.S. government's official web portal to all federal, state and local government web resources and services.